createdAt,value
2023-03-24T04:49:03.333Z,838.40
2023-03-24T04:51:31.159Z,831.05
2023-03-24T04:53:57.821Z,834.67
2023-03-24T04:56:36.549Z,830.88
2023-03-24T04:59:03.298Z,835.58
2023-03-24T05:01:30.832Z,832.92
2023-03-24T05:03:58.370Z,836.03
2023-03-24T05:06:25.995Z,825.10
2023-03-24T05:08:52.988Z,830.60
2023-03-24T05:11:20.538Z,833.33
2023-03-24T05:13:47.610Z,837.42
2023-03-24T05:16:15.151Z,838.83
2023-03-24T05:18:42.223Z,837.70
2023-03-24T05:21:09.288Z,841.47
2023-03-24T05:23:36.062Z,837.60
2023-03-24T05:26:03.459Z,840.25
2023-03-24T05:28:30.299Z,839.05
2023-03-24T05:30:56.988Z,852.35
2023-03-24T05:33:23.793Z,856.38
2023-03-24T05:35:50.528Z,850.33
2023-03-24T05:38:17.210Z,856.42
2023-03-24T05:40:43.908Z,853.80
2023-03-24T05:43:12.187Z,856.35
2023-03-24T05:45:39.416Z,858.20
2023-03-24T05:48:06.378Z,860.45
2023-03-24T05:50:33.554Z,848.80
2023-03-24T05:53:00.838Z,854.22
2023-03-24T05:55:27.474Z,853.47
2023-03-24T05:57:54.151Z,871.67
2023-03-24T06:00:21.103Z,867.03
2023-03-24T06:02:47.827Z,863.17
2023-03-24T06:05:14.688Z,855.35
2023-03-24T06:07:44.374Z,851.25
2023-03-24T06:10:14.413Z,849.83
2023-03-24T06:12:41.576Z,854.33
2023-03-24T06:15:09.322Z,854.60
2023-03-24T06:17:37.371Z,847.85
2023-03-24T06:20:05.913Z,845.38
2023-03-24T06:22:33.746Z,847.33
2023-03-24T06:25:00.732Z,834.92
2023-03-24T06:27:30.409Z,847.97
2023-03-24T06:30:00.251Z,850.65
2023-03-24T06:32:27.259Z,848.40
2023-03-24T06:34:54.223Z,847.15
2023-03-24T06:37:24.076Z,846.45
2023-03-24T06:39:50.846Z,851.33
2023-03-24T06:42:18.581Z,854.72
2023-03-24T06:44:45.447Z,858.78
2023-03-24T06:47:12.079Z,868.93
2023-03-24T06:49:38.795Z,863.95
2023-03-24T06:52:05.646Z,882.03
2023-03-24T06:54:32.297Z,884.42
2023-03-24T06:56:58.935Z,877.55
2023-03-24T06:59:25.691Z,881.67
2023-03-24T07:01:53.171Z,874.20
2023-03-24T07:04:21.364Z,873.30
2023-03-24T07:07:03.523Z,880.80
2023-03-24T07:09:34.798Z,865.58
2023-03-24T07:12:03.395Z,872.53
2023-03-24T07:14:30.170Z,869.22
2023-03-24T07:16:56.856Z,881.38
2023-03-24T07:19:23.548Z,882.10
2023-03-24T07:21:50.350Z,889.20
2023-03-24T07:24:17.713Z,889.10
2023-03-24T07:26:44.469Z,885.75
2023-03-24T07:29:11.858Z,882.15
2023-03-24T07:31:39.360Z,886.83
2023-03-24T07:34:06.843Z,870.10
2023-03-24T07:36:33.713Z,881.50
2023-03-24T07:39:00.744Z,875.00
2023-03-24T07:41:29.238Z,873.40
2023-03-24T07:43:55.903Z,884.00
2023-03-24T07:46:22.745Z,880.03
2023-03-24T07:48:49.354Z,879.92
2023-03-24T07:51:17.946Z,882.60
2023-03-24T07:53:45.678Z,872.28
2023-03-24T07:56:12.424Z,870.65
2023-03-24T07:58:39.101Z,864.38
2023-03-24T08:01:12.632Z,865.72
2023-03-24T08:03:40.827Z,866.88
2023-03-24T08:06:09.398Z,860.25
2023-03-24T08:08:36.868Z,861.55
2023-03-24T08:11:04.591Z,855.53
2023-03-24T08:13:31.314Z,857.95
2023-03-24T08:15:57.975Z,867.42
2023-03-24T08:18:25.254Z,870.42
2023-03-24T08:20:57.764Z,867.47
2023-03-24T08:23:25.065Z,886.60
2023-03-24T08:25:51.826Z,872.22
2023-03-24T08:28:18.520Z,875.25
2023-03-24T08:30:45.314Z,880.50
2023-03-24T08:33:14.373Z,887.75
2023-03-24T08:35:41.429Z,890.67
2023-03-24T08:38:09.558Z,900.03
2023-03-24T08:40:38.588Z,887.33
2023-03-24T08:43:11.005Z,895.22
2023-03-24T08:45:38.311Z,890.97
2023-03-24T08:48:07.337Z,893.58
2023-03-24T08:50:37.377Z,889.80
2023-03-24T08:53:04.808Z,881.88
2023-03-24T08:55:33.018Z,872.88
2023-03-24T08:58:00.377Z,882.15
2023-03-24T09:00:28.837Z,877.47
2023-03-24T09:02:56.463Z,875.05
2023-03-24T09:05:37.133Z,878.70
2023-03-24T09:08:11.420Z,877.00
2023-03-24T09:10:40.010Z,892.03
2023-03-24T09:13:06.962Z,900.53
2023-03-24T09:15:34.097Z,899.42
2023-03-24T09:18:01.931Z,902.17
2023-03-24T09:20:28.959Z,901.42
2023-03-24T09:22:56.124Z,900.65
2023-03-24T09:25:24.274Z,900.07
2023-03-24T09:27:51.069Z,885.45
2023-03-24T09:30:19.048Z,894.08
2023-03-24T09:32:46.486Z,894.25
2023-03-24T09:35:13.568Z,897.93
2023-03-24T09:37:41.073Z,892.38
2023-03-24T09:40:08.416Z,894.40
2023-03-24T09:42:41.205Z,892.40
2023-03-24T09:45:18.242Z,895.03
2023-03-24T09:47:54.653Z,893.95
2023-03-24T09:50:48.340Z,891.15
2023-03-24T09:53:34.627Z,897.08
2023-03-24T09:56:16.178Z,889.85
2023-03-24T09:58:45.384Z,897.35
2023-03-24T10:01:15.240Z,897.10
2023-03-24T10:03:46.431Z,898.77
2023-03-24T10:06:39.810Z,873.10
2023-03-24T10:09:34.817Z,876.53
2023-03-24T10:12:16.292Z,876.72
2023-03-24T10:14:57.952Z,867.42
2023-03-24T10:17:53.821Z,872.97
2023-03-24T10:20:41.446Z,878.25
2023-03-24T10:23:32.911Z,895.20
2023-03-24T10:26:12.160Z,870.40
2023-03-24T10:28:52.290Z,878.33
2023-03-24T10:31:27.872Z,872.08
2023-03-24T10:33:54.749Z,868.42
2023-03-24T10:36:23.189Z,873.72
2023-03-24T10:38:49.852Z,891.38
2023-03-24T10:41:28.971Z,888.40
2023-03-24T10:43:59.186Z,893.20
2023-03-24T10:46:28.334Z,891.78
2023-03-24T10:49:10.081Z,883.25
2023-03-24T10:51:37.097Z,896.50
2023-03-24T10:54:12.665Z,890.75
2023-03-24T10:56:43.221Z,874.10
2023-03-24T10:59:27.519Z,867.83
2023-03-24T11:02:14.585Z,860.97
2023-03-24T11:04:48.255Z,847.05
2023-03-24T11:07:20.668Z,850.57
2023-03-24T11:10:01.012Z,848.20
2023-03-24T11:12:33.394Z,856.03
2023-03-24T11:15:20.134Z,850.35
2023-03-24T11:17:56.695Z,848.08
2023-03-24T11:20:36.282Z,844.97
2023-03-24T11:23:28.124Z,847.10
2023-03-24T11:26:08.714Z,851.40
2023-03-24T11:28:42.741Z,849.22
2023-03-24T11:31:11.846Z,854.25
2023-03-24T11:33:47.241Z,850.97
2023-03-24T11:36:30.164Z,856.28
2023-03-24T11:39:21.687Z,850.42
2023-03-24T11:41:53.101Z,843.80
2023-03-24T11:44:22.876Z,851.33
2023-03-24T11:46:55.694Z,843.40
2023-03-24T11:49:30.385Z,843.75
2023-03-24T11:51:57.287Z,837.10
2023-03-24T11:54:32.491Z,846.50
2023-03-24T11:57:11.707Z,835.88
2023-03-24T12:00:13.534Z,837.03
2023-03-24T12:02:42.739Z,827.38
2023-03-24T12:05:24.356Z,830.42
2023-03-24T12:08:14.087Z,828.15
2023-03-24T12:11:05.656Z,825.60
2023-03-24T12:13:49.176Z,834.58
2023-03-24T12:16:43.491Z,830.08
2023-03-24T12:19:34.541Z,818.85
2023-03-24T12:22:32.603Z,828.13
2023-03-24T12:25:27.707Z,818.05
2023-03-24T12:28:09.350Z,822.05
2023-03-24T12:30:45.299Z,818.83
2023-03-24T12:33:38.432Z,824.10
2023-03-24T12:36:45.884Z,817.60
2023-03-24T12:39:23.905Z,825.00
2023-03-24T12:42:06.576Z,829.03
2023-03-24T12:44:47.967Z,824.75
2023-03-24T12:47:38.818Z,830.90
2023-03-24T12:50:37.994Z,822.30
2023-03-24T12:53:34.404Z,826.88
2023-03-24T12:56:03.836Z,833.22
2023-03-24T12:58:46.849Z,828.58
2023-03-24T13:01:29.529Z,839.45
2023-03-24T13:04:26.625Z,844.25
2023-03-24T13:07:03.449Z,837.30
2023-03-24T13:09:59.196Z,842.25
2023-03-24T13:13:03.790Z,845.10
2023-03-24T13:15:43.268Z,845.40
2023-03-24T13:18:10.026Z,851.42
2023-03-24T13:20:50.247Z,840.22
2023-03-24T13:23:45.730Z,838.00
2023-03-24T13:26:15.357Z,839.60
2023-03-24T13:29:14.460Z,847.58
2023-03-24T13:31:51.633Z,844.88
2023-03-24T13:34:36.191Z,849.88
2023-03-24T13:37:12.406Z,840.65
2023-03-24T13:39:39.286Z,836.50
2023-03-24T13:42:06.248Z,831.33
2023-03-24T13:44:42.532Z,834.00
2023-03-24T13:47:17.428Z,833.15
2023-03-24T13:49:56.538Z,834.63
2023-03-24T13:52:36.469Z,836.70
2023-03-24T13:55:10.768Z,836.13
2023-03-24T13:57:41.766Z,833.07
2023-03-24T14:00:14.317Z,832.72
2023-03-24T14:02:43.761Z,832.58
2023-03-24T14:05:30.052Z,829.30
2023-03-24T14:08:05.883Z,830.75
2023-03-24T14:10:38.636Z,823.55
2023-03-24T14:13:14.119Z,827.58
2023-03-24T14:16:07.412Z,809.22
2023-03-24T14:18:34.486Z,817.95
2023-03-24T14:21:04.472Z,828.27
2023-03-24T14:23:49.341Z,827.70
2023-03-24T14:26:23.221Z,826.33
2023-03-24T14:28:52.408Z,832.33
2023-03-24T14:31:29.465Z,839.92
2023-03-24T14:34:02.598Z,834.55
2023-03-24T14:36:31.135Z,832.38
2023-03-24T14:39:13.954Z,833.17
2023-03-24T14:41:44.243Z,835.42
2023-03-24T14:44:11.486Z,830.47
2023-03-24T14:46:50.232Z,833.05
2023-03-24T14:49:33.578Z,829.45
2023-03-24T14:52:39.683Z,830.22
2023-03-24T14:55:19.470Z,831.30
2023-03-24T14:57:51.315Z,841.15
2023-03-24T15:00:27.635Z,829.95
2023-03-24T15:03:26.640Z,825.67
2023-03-24T15:05:53.554Z,833.35
2023-03-24T15:08:22.319Z,824.53
2023-03-24T15:10:55.456Z,826.78
2023-03-24T15:13:39.045Z,834.42
2023-03-24T15:16:11.502Z,822.30
2023-03-24T15:19:01.812Z,832.90
2023-03-24T15:21:38.269Z,833.53
2023-03-24T15:24:38.037Z,830.53
2023-03-24T15:27:17.858Z,824.13
2023-03-24T15:29:45.568Z,826.83
2023-03-24T15:32:19.158Z,836.03
2023-03-24T15:34:52.183Z,820.40
2023-03-24T15:37:25.026Z,810.60
2023-03-24T15:40:01.778Z,812.17
2023-03-24T15:42:33.195Z,807.80
2023-03-24T15:45:26.095Z,817.28
2023-03-24T15:47:54.390Z,815.92
2023-03-24T15:50:35.449Z,814.47
2023-03-24T15:53:14.210Z,821.60
2023-03-24T15:55:43.370Z,810.30
2023-03-24T15:58:27.859Z,822.40
2023-03-24T16:00:59.712Z,810.93
2023-03-24T16:03:27.469Z,805.10
2023-03-24T16:05:56.650Z,800.60
2023-03-24T16:08:40.976Z,801.50
2023-03-24T16:11:13.847Z,806.28
2023-03-24T16:13:43.286Z,807.50
2023-03-24T16:16:15.967Z,810.67
2023-03-24T16:18:48.613Z,797.10
2023-03-24T16:21:18.494Z,809.55
2023-03-24T16:23:46.482Z,802.80
2023-03-24T16:26:18.300Z,806.00
2023-03-24T16:28:46.565Z,801.30
2023-03-24T16:31:26.682Z,793.67
2023-03-24T16:33:55.934Z,790.90
2023-03-24T16:36:26.541Z,792.10
2023-03-24T16:38:55.162Z,789.10
2023-03-24T16:41:22.280Z,778.72
2023-03-24T16:43:48.990Z,786.63
2023-03-24T16:46:36.253Z,794.03
2023-03-24T16:49:05.375Z,789.95
2023-03-24T16:51:32.310Z,779.95
2023-03-24T16:53:59.339Z,781.55
2023-03-24T16:56:26.525Z,786.47
2023-03-24T16:58:54.470Z,793.03
2023-03-24T17:01:37.292Z,785.45
2023-03-24T17:04:13.128Z,785.30
2023-03-24T17:06:43.562Z,784.90
2023-03-24T17:09:12.542Z,783.15
2023-03-24T17:11:42.233Z,789.38
2023-03-24T17:14:12.286Z,785.27
2023-03-24T17:16:43.801Z,788.20
2023-03-24T17:19:15.373Z,783.70
2023-03-24T17:21:45.839Z,782.78
2023-03-24T17:24:13.468Z,785.30
2023-03-24T17:26:41.812Z,795.97
2023-03-24T17:29:14.708Z,801.08
2023-03-24T17:31:43.118Z,792.38
2023-03-24T17:34:21.534Z,787.20
2023-03-24T17:36:50.345Z,789.72
2023-03-24T17:39:18.754Z,782.13
2023-03-24T17:41:45.604Z,789.97
2023-03-24T17:44:12.345Z,786.85
2023-03-24T17:46:39.065Z,782.00
2023-03-24T17:49:06.333Z,780.60
2023-03-24T17:51:33.038Z,779.65
2023-03-24T17:53:59.876Z,780.03
2023-03-24T17:56:26.801Z,785.10
2023-03-24T17:58:56.289Z,798.70
2023-03-24T18:01:23.571Z,781.15
2023-03-24T18:03:51.368Z,777.58
2023-03-24T18:06:18.180Z,784.65
2023-03-24T18:08:45.154Z,774.03
2023-03-24T18:11:14.555Z,775.35
2023-03-24T18:13:41.959Z,779.38
2023-03-24T18:16:19.957Z,774.80
2023-03-24T18:18:48.481Z,782.85
2023-03-24T18:21:15.291Z,760.83
2023-03-24T18:23:41.933Z,766.58
2023-03-24T18:26:09.111Z,779.42
2023-03-24T18:28:40.013Z,771.05
2023-03-24T18:31:20.006Z,774.55
2023-03-24T18:33:51.058Z,776.50
2023-03-24T18:36:26.193Z,778.95
2023-03-24T18:38:58.283Z,777.40
2023-03-24T18:41:28.550Z,769.67
2023-03-24T18:43:56.506Z,770.67
2023-03-24T18:46:23.606Z,748.67
2023-03-24T18:48:53.000Z,750.75
2023-03-24T18:51:21.446Z,740.88
2023-03-24T18:53:49.238Z,766.63
2023-03-24T18:56:16.736Z,766.15
2023-03-24T18:58:44.158Z,749.45
2023-03-24T19:01:13.267Z,748.40
2023-03-24T19:03:41.920Z,748.00
2023-03-24T19:06:10.980Z,743.55
2023-03-24T19:08:40.823Z,741.63
2023-03-24T19:11:08.719Z,737.88
2023-03-24T19:13:36.300Z,747.20
2023-03-24T19:16:04.603Z,737.40
2023-03-24T19:18:31.312Z,741.58
2023-03-24T19:20:58.840Z,747.50
2023-03-24T19:23:26.277Z,745.88
2023-03-24T19:25:56.155Z,744.20
2023-03-24T19:28:24.413Z,736.45
2023-03-24T19:30:51.478Z,747.60
2023-03-24T19:33:18.159Z,753.03
2023-03-24T19:35:48.084Z,749.92
2023-03-24T19:38:16.216Z,746.63
2023-03-24T19:40:43.019Z,745.63
2023-03-24T19:43:09.841Z,740.93
2023-03-24T19:45:36.469Z,745.65
2023-03-24T19:48:03.158Z,740.03
2023-03-24T19:50:29.807Z,740.05
2023-03-24T19:52:56.523Z,732.57
2023-03-24T19:55:23.235Z,736.95
2023-03-24T19:57:49.809Z,732.47
2023-03-24T20:00:16.710Z,734.95
2023-03-24T20:02:43.357Z,726.03
2023-03-24T20:05:10.126Z,732.40
2023-03-24T20:07:37.308Z,731.63
2023-03-24T20:10:04.219Z,733.88
2023-03-24T20:12:32.076Z,722.40
2023-03-24T20:14:58.724Z,731.13
2023-03-24T20:17:28.415Z,736.05
2023-03-24T20:19:55.826Z,744.00
2023-03-24T20:22:22.784Z,744.28
2023-03-24T20:24:49.426Z,737.38
2023-03-24T20:27:16.891Z,734.38
2023-03-24T20:29:45.655Z,729.00
2023-03-24T20:32:12.701Z,731.45
2023-03-24T20:34:39.336Z,731.65
2023-03-24T20:37:06.818Z,725.95
2023-03-24T20:39:33.714Z,725.90
2023-03-24T20:42:00.937Z,733.25
2023-03-24T20:44:27.884Z,729.65
2023-03-24T20:46:57.003Z,733.25
2023-03-24T20:49:24.360Z,741.20
2023-03-24T20:51:51.498Z,742.92
2023-03-24T20:54:18.211Z,735.40
2023-03-24T20:56:44.947Z,738.65
2023-03-24T20:59:13.643Z,730.97
2023-03-24T21:01:42.137Z,733.58
2023-03-24T21:04:09.922Z,722.38
2023-03-24T21:06:40.607Z,704.97
2023-03-24T21:09:07.261Z,703.70
2023-03-24T21:11:34.418Z,709.22
2023-03-24T21:14:02.512Z,715.00
2023-03-24T21:16:33.524Z,714.72
2023-03-24T21:19:03.642Z,734.75
2023-03-24T21:21:30.504Z,720.53
2023-03-24T21:23:57.809Z,733.90
2023-03-24T21:26:25.448Z,726.67
2023-03-24T21:28:52.950Z,741.25
2023-03-24T21:31:21.606Z,743.67
2023-03-24T21:33:48.872Z,732.63
2023-03-24T21:36:16.653Z,735.58
2023-03-24T21:38:43.377Z,733.35
2023-03-24T21:41:10.444Z,733.25
2023-03-24T21:43:38.117Z,738.38
2023-03-24T21:46:05.036Z,735.58
2023-03-24T21:48:40.052Z,736.97
2023-03-24T21:51:06.777Z,731.88
2023-03-24T21:53:34.810Z,735.33
2023-03-24T21:56:04.610Z,737.25
2023-03-24T21:58:32.645Z,739.63
2023-03-24T22:01:00.367Z,741.72
2023-03-24T22:03:27.790Z,729.25
2023-03-24T22:05:56.591Z,733.95
2023-03-24T22:08:26.517Z,729.45
2023-03-24T22:11:04.111Z,732.53
2023-03-24T22:13:32.008Z,732.20
2023-03-24T22:16:01.791Z,738.45
2023-03-24T22:18:31.742Z,735.35
2023-03-24T22:21:04.347Z,737.00
2023-03-24T22:23:33.915Z,733.83
2023-03-24T22:26:01.944Z,739.93
2023-03-24T22:28:29.534Z,742.03
2023-03-24T22:31:16.772Z,743.90
2023-03-24T22:33:44.655Z,738.45
2023-03-24T22:36:12.253Z,732.37
2023-03-24T22:38:38.945Z,743.20
2023-03-24T22:41:08.182Z,728.88
2023-03-24T22:43:35.908Z,726.28
2023-03-24T22:46:02.885Z,716.88
2023-03-24T22:48:29.660Z,722.50
2023-03-24T22:50:56.761Z,715.38
2023-03-24T22:53:23.600Z,707.88
2023-03-24T22:55:50.696Z,709.25
2023-03-24T22:58:18.033Z,708.25
2023-03-24T23:00:49.608Z,708.72
2023-03-24T23:03:16.807Z,709.63
2023-03-24T23:05:45.816Z,727.28
2023-03-24T23:08:14.965Z,729.63
2023-03-24T23:10:43.796Z,724.80
2023-03-24T23:13:10.808Z,728.95
2023-03-24T23:15:38.935Z,725.95
2023-03-24T23:18:05.721Z,724.72
2023-03-24T23:20:33.003Z,730.75
2023-03-24T23:23:01.105Z,720.55
2023-03-24T23:25:30.741Z,727.97
2023-03-24T23:27:58.220Z,722.58
2023-03-24T23:30:24.966Z,725.90
2023-03-24T23:32:51.742Z,725.50
2023-03-24T23:35:19.707Z,721.00
2023-03-24T23:37:46.487Z,730.80
2023-03-24T23:40:15.255Z,732.22
2023-03-24T23:42:46.217Z,726.38
2023-03-24T23:45:14.915Z,734.17
2023-03-24T23:47:43.741Z,740.60
2023-03-24T23:50:11.510Z,727.55
2023-03-24T23:52:41.254Z,726.88
2023-03-24T23:55:10.243Z,731.67
2023-03-24T23:57:41.210Z,730.53
